createdAt,value
2019-05-28T00:00:38.779Z,50.20
2019-05-28T00:03:11.052Z,50.22
2019-05-28T00:05:43.343Z,50.24
2019-05-28T00:08:15.722Z,50.25
2019-05-28T00:10:48.068Z,50.23
2019-05-28T00:13:20.370Z,50.22
2019-05-28T00:15:52.749Z,50.21
2019-05-28T00:18:25.096Z,50.21
2019-05-28T00:20:57.588Z,50.21
2019-05-28T00:23:29.758Z,50.20
2019-05-28T00:26:01.974Z,50.19
2019-05-28T00:28:34.464Z,50.18
2019-05-28T00:31:08.515Z,50.19
2019-05-28T00:33:41.000Z,50.23
2019-05-28T00:36:13.539Z,50.23
2019-05-28T00:38:46.070Z,50.19
2019-05-28T00:41:18.417Z,50.13
2019-05-28T00:43:51.307Z,50.11
2019-05-28T00:46:23.667Z,50.10
2019-05-28T00:48:56.522Z,50.10
2019-05-28T00:51:29.386Z,50.08
2019-05-28T00:54:01.890Z,50.10
2019-05-28T00:56:35.420Z,50.10
2019-05-28T00:59:08.177Z,50.10
2019-05-28T01:01:40.992Z,50.09
2019-05-28T01:04:13.437Z,50.09
2019-05-28T01:06:45.867Z,50.10
2019-05-28T01:09:18.229Z,50.12
2019-05-28T01:11:50.428Z,50.14
2019-05-28T01:14:22.669Z,50.11
2019-05-28T01:16:55.060Z,50.08
2019-05-28T01:19:27.306Z,50.03
2019-05-28T01:21:59.645Z,50.00
2019-05-28T01:24:31.881Z,50.01
2019-05-28T01:27:04.207Z,50.01
2019-05-28T01:29:36.450Z,50.00
2019-05-28T01:32:08.778Z,49.94
2019-05-28T01:34:41.100Z,49.92
2019-05-28T01:37:13.377Z,49.89
2019-05-28T01:39:45.765Z,49.83
2019-05-28T01:42:18.137Z,49.85
2019-05-28T01:44:50.478Z,49.85
2019-05-28T01:47:22.731Z,49.83
2019-05-28T01:49:55.049Z,49.79
2019-05-28T01:52:27.288Z,49.80
2019-05-28T01:54:59.585Z,49.82
2019-05-28T01:57:31.822Z,49.85
2019-05-28T02:00:04.653Z,49.89
2019-05-28T02:02:37.559Z,49.89
2019-05-28T02:05:11.410Z,49.88
2019-05-28T02:07:43.751Z,49.89
2019-05-28T02:10:17.020Z,49.87
2019-05-28T02:12:49.498Z,49.85
2019-05-28T02:15:22.374Z,49.80
2019-05-28T02:17:54.677Z,49.80
2019-05-28T02:20:27.360Z,49.77
2019-05-28T02:22:59.740Z,49.73
2019-05-28T02:25:32.455Z,49.74
2019-05-28T02:28:04.744Z,49.73
2019-05-28T02:30:37.237Z,49.74
2019-05-28T02:33:10.225Z,49.71
2019-05-28T02:35:42.962Z,49.69
2019-05-28T02:38:15.821Z,49.65
2019-05-28T02:40:48.116Z,49.65
2019-05-28T02:43:20.391Z,49.67
2019-05-28T02:45:52.780Z,49.69
2019-05-28T02:48:25.129Z,49.67
2019-05-28T02:51:07.527Z,49.65
2019-05-28T02:53:40.198Z,49.62
2019-05-28T02:56:15.792Z,49.60
2019-05-28T02:58:51.392Z,49.60
2019-05-28T03:01:26.424Z,49.56
2019-05-28T03:04:00.159Z,49.55
2019-05-28T03:06:34.858Z,49.53
2019-05-28T03:09:09.631Z,49.49
2019-05-28T03:11:41.954Z,49.48
2019-05-28T03:14:14.200Z,49.50
2019-05-28T03:16:50.738Z,49.51
2019-05-28T03:19:25.381Z,49.52
2019-05-28T03:22:02.042Z,49.55
2019-05-28T03:24:36.723Z,49.56
2019-05-28T03:27:09.022Z,49.59
2019-05-28T03:29:41.240Z,49.63
2019-05-28T03:32:13.678Z,49.64
2019-05-28T03:34:45.940Z,49.65
2019-05-28T03:37:19.857Z,49.69
2019-05-28T03:39:56.354Z,49.72
2019-05-28T03:42:28.610Z,49.77
2019-05-28T03:45:01.043Z,49.80
2019-05-28T03:47:33.403Z,49.81
2019-05-28T03:50:06.325Z,49.79
2019-05-28T03:52:39.811Z,49.77
2019-05-28T03:55:13.303Z,49.74
2019-05-28T03:57:45.568Z,49.68
2019-05-28T04:00:17.897Z,49.61
2019-05-28T04:02:50.093Z,49.60
2019-05-28T04:05:22.501Z,49.57
2019-05-28T04:07:54.844Z,49.55
2019-05-28T04:10:27.269Z,49.55
2019-05-28T04:12:59.958Z,49.50
2019-05-28T04:15:32.499Z,49.46
2019-05-28T04:18:05.085Z,49.45
2019-05-28T04:20:37.851Z,49.40
2019-05-28T04:23:17.718Z,49.38
2019-05-28T04:25:50.229Z,49.42
2019-05-28T04:28:22.572Z,49.45
2019-05-28T04:30:55.143Z,49.50
2019-05-28T04:33:27.544Z,49.52
2019-05-28T04:35:59.816Z,49.53
2019-05-28T04:38:32.248Z,49.52
2019-05-28T04:41:04.469Z,49.49
2019-05-28T04:43:36.910Z,49.43
2019-05-28T04:46:09.584Z,49.39
2019-05-28T04:48:41.946Z,49.36
2019-05-28T04:51:14.252Z,49.31
2019-05-28T04:53:46.570Z,49.30
2019-05-28T04:56:18.824Z,49.20
2019-05-28T04:58:51.290Z,49.05
2019-05-28T05:01:23.763Z,49.04
2019-05-28T05:03:56.408Z,49.05
2019-05-28T05:06:28.874Z,49.08
2019-05-28T05:09:02.136Z,49.11
2019-05-28T05:11:34.374Z,49.09
2019-05-28T05:14:06.659Z,48.95
2019-05-28T05:16:39.035Z,48.78
2019-05-28T05:19:11.233Z,48.53
2019-05-28T05:21:43.556Z,48.21
2019-05-28T05:24:15.886Z,47.87
2019-05-28T05:26:48.142Z,47.52
2019-05-28T05:29:22.162Z,47.16
2019-05-28T05:31:54.474Z,46.79
2019-05-28T05:34:26.917Z,46.48
2019-05-28T05:36:59.108Z,46.27
2019-05-28T05:39:31.939Z,46.09
2019-05-28T05:42:04.270Z,46.02
2019-05-28T05:44:36.706Z,46.01
2019-05-28T05:47:08.989Z,45.83
2019-05-28T05:49:41.414Z,45.71
2019-05-28T05:52:13.780Z,45.58
2019-05-28T05:54:46.111Z,45.52
2019-05-28T05:57:20.542Z,45.53
2019-05-28T05:59:52.913Z,45.56
2019-05-28T06:02:25.691Z,45.43
2019-05-28T06:04:58.291Z,45.37
2019-05-28T06:07:34.052Z,45.17
2019-05-28T06:10:07.560Z,44.94
2019-05-28T06:12:41.090Z,44.94
2019-05-28T06:15:15.295Z,44.77
2019-05-28T06:17:48.879Z,44.74
2019-05-28T06:20:21.710Z,44.75
2019-05-28T06:22:54.420Z,44.76
2019-05-28T06:25:26.803Z,44.68
2019-05-28T06:27:59.085Z,44.59
2019-05-28T06:30:31.578Z,44.47
2019-05-28T06:33:03.904Z,44.31
2019-05-28T06:35:36.331Z,44.32
2019-05-28T06:38:08.634Z,44.45
2019-05-28T06:40:40.995Z,44.24
2019-05-28T06:43:13.844Z,44.37
2019-05-28T06:45:46.488Z,44.36
2019-05-28T06:48:18.885Z,44.37
2019-05-28T06:50:51.406Z,44.33
2019-05-28T06:53:23.812Z,44.34
2019-05-28T06:55:56.271Z,44.29
2019-05-28T06:58:38.517Z,44.16
2019-05-28T07:01:03.729Z,44.30
2019-05-28T07:03:36.520Z,44.42
2019-05-28T07:06:08.830Z,44.36
2019-05-28T07:08:41.552Z,44.32
2019-05-28T07:11:13.952Z,44.27
2019-05-28T07:13:46.273Z,44.17
2019-05-28T07:16:18.639Z,44.15
2019-05-28T07:18:51.109Z,44.12
2019-05-28T07:21:23.335Z,44.13
2019-05-28T07:23:57.073Z,43.99
2019-05-28T07:26:30.538Z,43.84
2019-05-28T07:29:04.212Z,43.98
2019-05-28T07:31:36.594Z,44.24
2019-05-28T07:34:08.885Z,44.36
2019-05-28T07:36:41.407Z,44.39
2019-05-28T07:39:13.643Z,44.38
2019-05-28T07:41:45.922Z,44.45
2019-05-28T07:44:18.327Z,44.56
2019-05-28T07:46:50.535Z,44.76
2019-05-28T07:49:22.965Z,44.78
2019-05-28T07:51:55.194Z,44.66
2019-05-28T07:54:28.007Z,44.65
2019-05-28T07:57:00.538Z,44.74
2019-05-28T07:59:33.064Z,44.91
2019-05-28T08:02:05.579Z,44.94
2019-05-28T08:04:46.943Z,44.86
2019-05-28T08:07:12.386Z,44.75
2019-05-28T08:09:45.259Z,44.64
2019-05-28T08:12:17.509Z,44.55
2019-05-28T08:14:49.851Z,44.49
2019-05-28T08:17:22.161Z,44.34
2019-05-28T08:19:54.634Z,44.18
2019-05-28T08:22:41.038Z,44.18
2019-05-28T08:25:01.183Z,44.15
2019-05-28T08:27:33.472Z,44.19
2019-05-28T08:30:05.913Z,43.98
2019-05-28T08:32:38.691Z,43.95
2019-05-28T08:35:11.043Z,44.10
2019-05-28T08:37:43.446Z,44.17
2019-05-28T08:40:16.273Z,44.16
2019-05-28T08:42:48.644Z,44.25
2019-05-28T08:45:21.245Z,44.42
2019-05-28T08:47:53.585Z,44.61
2019-05-28T08:50:34.370Z,44.57
2019-05-28T08:52:59.960Z,44.48
2019-05-28T08:55:32.451Z,44.53
2019-05-28T08:58:05.282Z,44.63
2019-05-28T09:00:43.000Z,44.80
2019-05-28T09:03:17.659Z,44.87
2019-05-28T09:05:49.918Z,44.86
2019-05-28T09:08:37.776Z,44.91
2019-05-28T09:10:56.158Z,44.91
2019-05-28T09:13:29.333Z,44.89
2019-05-28T09:16:01.694Z,44.91
2019-05-28T09:18:33.994Z,45.02
2019-05-28T09:21:06.352Z,45.08
2019-05-28T09:23:38.573Z,45.16
2019-05-28T09:26:10.893Z,45.22
2019-05-28T09:28:43.306Z,45.20
2019-05-28T09:31:15.950Z,45.26
2019-05-28T09:33:48.473Z,45.28
2019-05-28T09:36:21.021Z,45.26
2019-05-28T09:38:53.620Z,45.26
2019-05-28T09:41:26.227Z,45.27
2019-05-28T09:43:58.847Z,45.27
2019-05-28T09:46:31.569Z,45.34
2019-05-28T09:49:04.395Z,45.34
2019-05-28T09:51:37.309Z,45.37
2019-05-28T09:54:09.666Z,45.28
2019-05-28T09:56:42.111Z,45.26
2019-05-28T09:59:14.991Z,45.28
2019-05-28T10:01:48.709Z,45.29
2019-05-28T10:04:21.543Z,45.36
2019-05-28T10:06:53.895Z,45.41
2019-05-28T10:09:26.337Z,45.45
2019-05-28T10:11:58.648Z,45.48
2019-05-28T10:14:33.445Z,45.50
2019-05-28T10:17:06.067Z,45.47
2019-05-28T10:19:38.430Z,45.48
2019-05-28T10:22:11.201Z,45.46
2019-05-28T10:24:43.626Z,45.47
2019-05-28T10:27:16.011Z,45.45
2019-05-28T10:29:48.294Z,45.53
2019-05-28T10:32:20.649Z,45.61
2019-05-28T10:35:03.309Z,45.63
2019-05-28T10:37:26.873Z,45.65
2019-05-28T10:39:59.112Z,45.65
2019-05-28T10:42:31.436Z,45.66
2019-05-28T10:45:03.789Z,45.68
2019-05-28T10:47:36.155Z,45.64
2019-05-28T10:50:08.704Z,45.62
2019-05-28T10:52:41.301Z,45.65
2019-05-28T10:55:15.974Z,45.65
2019-05-28T10:57:48.449Z,45.67
2019-05-28T11:00:23.471Z,45.70
2019-05-28T11:02:55.820Z,45.72
2019-05-28T11:05:28.312Z,45.72
2019-05-28T11:08:00.656Z,45.72
2019-05-28T11:10:33.172Z,45.72
2019-05-28T11:13:05.658Z,45.72
2019-05-28T11:15:38.135Z,45.74
2019-05-28T11:18:10.715Z,45.76
2019-05-28T11:20:43.287Z,45.80
2019-05-28T11:23:15.964Z,45.89
2019-05-28T11:25:48.418Z,46.03
2019-05-28T11:28:20.652Z,46.00
2019-05-28T11:30:53.203Z,46.04
2019-05-28T11:33:25.639Z,46.04
2019-05-28T11:35:58.382Z,46.03
2019-05-28T11:38:31.074Z,46.15
2019-05-28T11:41:03.621Z,46.13
2019-05-28T11:43:35.892Z,46.17
2019-05-28T11:46:08.134Z,46.19
2019-05-28T11:48:40.537Z,46.19
2019-05-28T11:51:12.803Z,46.21
2019-05-28T11:53:45.198Z,46.17
2019-05-28T11:56:17.504Z,46.22
2019-05-28T11:58:49.959Z,46.25
2019-05-28T12:01:33.883Z,46.31
2019-05-28T12:03:56.275Z,46.37
2019-05-28T12:06:28.630Z,46.38
2019-05-28T12:09:01.016Z,46.38
2019-05-28T12:11:33.578Z,46.33
2019-05-28T12:14:06.080Z,46.36
2019-05-28T12:16:38.383Z,46.37
2019-05-28T12:19:10.749Z,46.34
2019-05-28T12:21:44.276Z,46.37
2019-05-28T12:24:16.589Z,46.39
2019-05-28T12:26:48.863Z,46.39
2019-05-28T12:29:21.159Z,46.43
2019-05-28T12:31:53.569Z,46.46
2019-05-28T12:34:26.088Z,46.39
2019-05-28T12:36:58.341Z,46.37
2019-05-28T12:39:31.011Z,46.43
2019-05-28T12:42:07.197Z,46.50
2019-05-28T12:44:42.392Z,46.51
2019-05-28T12:47:14.603Z,46.55
2019-05-28T12:49:45.334Z,46.57
2019-05-28T12:52:18.233Z,46.51
2019-05-28T12:54:50.569Z,46.58
2019-05-28T12:57:22.923Z,46.58
2019-05-28T12:59:55.265Z,46.57
2019-05-28T13:02:27.838Z,46.59
2019-05-28T13:05:00.567Z,46.59
2019-05-28T13:07:32.971Z,46.59
2019-05-28T13:10:06.163Z,46.63
2019-05-28T13:12:39.003Z,46.66
2019-05-28T13:15:12.190Z,46.67
2019-05-28T13:17:44.694Z,46.68
2019-05-28T13:20:18.616Z,46.70
2019-05-28T13:22:51.331Z,46.63
2019-05-28T13:25:24.118Z,46.61
2019-05-28T13:27:56.359Z,46.59
2019-05-28T13:30:28.903Z,46.60
2019-05-28T13:33:01.452Z,46.54
2019-05-28T13:35:33.721Z,46.55
2019-05-28T13:38:25.258Z,46.59
2019-05-28T13:40:40.158Z,46.60
2019-05-28T13:43:12.978Z,46.61
2019-05-28T13:45:45.243Z,46.57
2019-05-28T13:48:17.562Z,46.59
2019-05-28T13:50:49.825Z,46.58
2019-05-28T13:53:22.213Z,46.61
2019-05-28T13:55:54.465Z,46.64
2019-05-28T13:58:26.743Z,46.69
2019-05-28T14:00:59.206Z,46.86
2019-05-28T14:03:31.502Z,46.89
2019-05-28T14:06:03.953Z,46.90
2019-05-28T14:08:46.452Z,46.96
2019-05-28T14:11:10.384Z,46.97
2019-05-28T14:13:42.842Z,46.99
2019-05-28T14:16:15.428Z,47.03
2019-05-28T14:18:47.708Z,47.13
2019-05-28T14:21:20.003Z,47.20
2019-05-28T14:23:52.328Z,47.22
2019-05-28T14:26:24.748Z,47.27
2019-05-28T14:28:57.012Z,47.27
2019-05-28T14:31:29.485Z,47.31
2019-05-28T14:34:01.793Z,47.41
2019-05-28T14:36:34.200Z,47.40
2019-05-28T14:39:09.045Z,47.46
2019-05-28T14:41:41.737Z,47.47
2019-05-28T14:44:14.210Z,47.61
2019-05-28T14:46:46.592Z,47.63
2019-05-28T14:49:19.156Z,47.67
2019-05-28T14:51:51.870Z,47.69
2019-05-28T14:54:24.781Z,47.76
2019-05-28T14:56:57.759Z,47.76
2019-05-28T14:59:30.342Z,47.92
2019-05-28T15:02:02.708Z,47.93
2019-05-28T15:04:35.186Z,47.99
2019-05-28T15:07:07.556Z,48.02
2019-05-28T15:09:40.436Z,48.12
2019-05-28T15:12:13.114Z,48.27
2019-05-28T15:14:45.511Z,48.32
2019-05-28T15:17:17.850Z,48.31
2019-05-28T15:19:50.264Z,48.32
2019-05-28T15:22:22.608Z,48.47
2019-05-28T15:24:54.960Z,48.54
2019-05-28T15:27:27.319Z,48.57
2019-05-28T15:29:59.677Z,48.58
2019-05-28T15:32:31.911Z,48.67
2019-05-28T15:35:04.249Z,48.60
2019-05-28T15:37:36.674Z,48.64
2019-05-28T15:40:11.130Z,48.70
2019-05-28T15:42:43.419Z,48.67
2019-05-28T15:45:16.167Z,48.65
2019-05-28T15:47:48.440Z,48.71
2019-05-28T15:50:21.015Z,48.74
2019-05-28T15:52:53.261Z,48.75
2019-05-28T15:55:26.008Z,48.77
2019-05-28T15:57:58.287Z,48.77
2019-05-28T16:00:30.542Z,48.85
2019-05-28T16:03:02.878Z,48.91
2019-05-28T16:05:35.235Z,49.04
2019-05-28T16:08:07.665Z,49.05
2019-05-28T16:10:42.950Z,49.05
2019-05-28T16:13:15.301Z,49.07
2019-05-28T16:15:47.553Z,49.20
2019-05-28T16:18:20.110Z,49.22
2019-05-28T16:20:52.884Z,49.29
2019-05-28T16:23:25.965Z,49.35
2019-05-28T16:25:59.337Z,49.37
2019-05-28T16:28:31.769Z,49.35
2019-05-28T16:31:12.589Z,49.33
2019-05-28T16:33:38.086Z,49.32
2019-05-28T16:36:10.416Z,49.42
2019-05-28T16:38:43.011Z,49.42
2019-05-28T16:41:15.718Z,49.43
2019-05-28T16:43:48.203Z,49.51
2019-05-28T16:46:20.573Z,49.54
2019-05-28T16:48:52.779Z,49.72
2019-05-28T16:51:25.348Z,49.78
2019-05-28T16:53:58.220Z,49.89
2019-05-28T16:56:30.633Z,49.95
2019-05-28T16:59:02.925Z,50.06
2019-05-28T17:01:36.041Z,50.09
2019-05-28T17:04:08.367Z,50.19
2019-05-28T17:06:40.734Z,50.19
2019-05-28T17:09:12.947Z,50.25
2019-05-28T17:11:45.313Z,50.32
2019-05-28T17:14:17.874Z,50.40
2019-05-28T17:16:50.214Z,50.50
2019-05-28T17:19:23.795Z,50.57
2019-05-28T17:21:57.536Z,50.59
2019-05-28T17:24:31.568Z,50.65
2019-05-28T17:27:03.896Z,50.70
2019-05-28T17:29:36.901Z,50.74
2019-05-28T17:32:09.248Z,50.79
2019-05-28T17:34:41.693Z,50.86
2019-05-28T17:37:14.167Z,50.86
2019-05-28T17:39:46.444Z,50.92
2019-05-28T17:42:18.891Z,50.98
2019-05-28T17:44:51.167Z,51.01
2019-05-28T17:47:23.483Z,51.03
2019-05-28T17:49:55.921Z,51.06
2019-05-28T17:52:28.191Z,51.12
2019-05-28T17:55:00.456Z,51.12
2019-05-28T17:57:33.326Z,51.23
2019-05-28T18:00:06.294Z,51.20
2019-05-28T18:02:38.941Z,51.25
2019-05-28T18:05:11.597Z,51.38
2019-05-28T18:07:43.924Z,51.41
2019-05-28T18:10:17.158Z,51.49
2019-05-28T18:12:49.595Z,51.54
2019-05-28T18:15:21.912Z,51.60
2019-05-28T18:17:54.546Z,51.59
2019-05-28T18:20:27.019Z,51.54
2019-05-28T18:22:59.555Z,51.52
2019-05-28T18:25:34.555Z,51.51
2019-05-28T18:28:12.218Z,51.57
2019-05-28T18:30:48.449Z,51.65
2019-05-28T18:33:23.129Z,51.66
2019-05-28T18:35:55.343Z,51.70
2019-05-28T18:38:27.621Z,51.76
2019-05-28T18:41:00.104Z,51.80
2019-05-28T18:43:32.426Z,51.79
2019-05-28T18:46:04.787Z,51.78
2019-05-28T18:48:38.455Z,51.77
2019-05-28T18:51:11.007Z,51.76
2019-05-28T18:53:43.321Z,51.75
2019-05-28T18:56:17.792Z,51.77
2019-05-28T18:58:49.724Z,51.77
2019-05-28T19:01:21.951Z,51.77
2019-05-28T19:03:54.282Z,51.81
2019-05-28T19:06:26.666Z,51.84
2019-05-28T19:08:59.005Z,51.86
2019-05-28T19:11:37.825Z,51.84
2019-05-28T19:14:05.692Z,51.86
2019-05-28T19:16:39.078Z,51.85
2019-05-28T19:19:11.478Z,51.85
2019-05-28T19:21:46.218Z,51.89
2019-05-28T19:24:37.652Z,51.95
2019-05-28T19:27:10.168Z,52.01
2019-05-28T19:29:42.584Z,52.02
2019-05-28T19:32:14.837Z,52.06
2019-05-28T19:34:48.717Z,52.12
2019-05-28T19:37:21.364Z,52.15
2019-05-28T19:39:54.096Z,52.17
2019-05-28T19:42:26.562Z,52.17
2019-05-28T19:44:59.275Z,52.16
2019-05-28T19:47:34.543Z,52.14
2019-05-28T19:50:07.826Z,52.15
2019-05-28T19:52:41.709Z,52.12
2019-05-28T19:55:14.798Z,52.09
2019-05-28T19:57:47.471Z,52.11
2019-05-28T20:00:20.107Z,52.12
2019-05-28T20:02:52.674Z,52.16
2019-05-28T20:05:25.176Z,52.18
2019-05-28T20:07:57.633Z,52.19
2019-05-28T20:10:30.282Z,52.21
2019-05-28T20:13:02.656Z,52.20
2019-05-28T20:15:35.574Z,52.24
2019-05-28T20:18:08.259Z,52.27
2019-05-28T20:20:40.586Z,52.32
2019-05-28T20:23:12.791Z,52.33
2019-05-28T20:25:48.476Z,52.33
2019-05-28T20:28:19.692Z,52.31
2019-05-28T20:30:52.579Z,52.31
2019-05-28T20:33:24.983Z,52.30
2019-05-28T20:35:57.464Z,52.30
2019-05-28T20:38:29.844Z,52.31
2019-05-28T20:41:03.918Z,52.28
2019-05-28T20:43:36.320Z,52.26
2019-05-28T20:46:08.690Z,52.23
2019-05-28T20:48:40.982Z,52.21
2019-05-28T20:51:21.527Z,52.24
2019-05-28T20:53:47.303Z,52.25
2019-05-28T20:56:19.735Z,52.27
2019-05-28T20:58:52.015Z,52.27
2019-05-28T21:01:24.438Z,52.29
2019-05-28T21:03:58.085Z,52.29
2019-05-28T21:06:30.636Z,52.30
2019-05-28T21:09:02.859Z,52.27
2019-05-28T21:11:35.111Z,52.25
2019-05-28T21:14:07.909Z,52.26
2019-05-28T21:16:40.288Z,52.30
2019-05-28T21:19:12.938Z,52.34
2019-05-28T21:21:45.611Z,52.33
2019-05-28T21:24:18.229Z,52.34
2019-05-28T21:26:50.637Z,52.37
2019-05-28T21:29:22.992Z,52.38
2019-05-28T21:31:55.279Z,52.38
2019-05-28T21:34:29.081Z,52.36
2019-05-28T21:37:02.617Z,52.35
2019-05-28T21:39:36.119Z,52.34
2019-05-28T21:42:08.340Z,52.34
2019-05-28T21:44:40.676Z,52.34
2019-05-28T21:47:12.956Z,52.34
2019-05-28T21:49:45.540Z,52.36
2019-05-28T21:52:17.951Z,52.37
2019-05-28T21:54:50.452Z,52.39
2019-05-28T21:57:22.817Z,52.40
2019-05-28T21:59:55.717Z,52.40
2019-05-28T22:02:28.254Z,52.41
2019-05-28T22:05:05.663Z,52.42
2019-05-28T22:07:34.691Z,52.44
2019-05-28T22:10:08.585Z,52.44
2019-05-28T22:12:41.536Z,52.51
2019-05-28T22:15:14.490Z,52.54
2019-05-28T22:17:47.364Z,52.54
2019-05-28T22:20:20.212Z,52.56
2019-05-28T22:22:52.538Z,52.56
2019-05-28T22:25:24.740Z,52.58
2019-05-28T22:27:57.067Z,52.61
2019-05-28T22:30:29.855Z,52.64
2019-05-28T22:33:02.336Z,52.65
2019-05-28T22:35:35.090Z,52.64
2019-05-28T22:38:07.576Z,52.64
2019-05-28T22:40:39.894Z,52.64
2019-05-28T22:43:12.199Z,52.66
2019-05-28T22:45:44.691Z,52.66
2019-05-28T22:48:17.813Z,52.67
2019-05-28T22:50:50.603Z,52.68
2019-05-28T22:53:22.948Z,52.68
2019-05-28T22:55:55.271Z,52.71
2019-05-28T22:58:28.051Z,52.73
2019-05-28T23:01:00.487Z,52.74
2019-05-28T23:03:33.343Z,52.77
2019-05-28T23:06:07.203Z,52.80
2019-05-28T23:08:40.249Z,52.81
2019-05-28T23:11:12.598Z,52.84
2019-05-28T23:13:47.021Z,52.86
2019-05-28T23:16:19.510Z,52.86
2019-05-28T23:18:52.143Z,52.88
2019-05-28T23:21:24.647Z,52.87
2019-05-28T23:23:57.326Z,52.87
2019-05-28T23:26:29.794Z,52.90
2019-05-28T23:29:02.128Z,52.94
2019-05-28T23:31:34.318Z,52.96
2019-05-28T23:34:06.854Z,52.99
2019-05-28T23:36:39.174Z,53.04
2019-05-28T23:39:13.126Z,53.05
2019-05-28T23:41:45.648Z,53.05
2019-05-28T23:44:18.426Z,53.06
2019-05-28T23:46:50.783Z,53.09
2019-05-28T23:49:23.344Z,53.09
2019-05-28T23:51:56.144Z,53.12
2019-05-28T23:54:28.926Z,53.17
2019-05-28T23:57:01.703Z,53.17
2019-05-28T23:59:34.254Z,53.18
